createdAt,value
2022-11-29T00:01:04.276Z,97839.28
2022-11-29T00:03:33.199Z,97837.66
2022-11-29T00:06:08.086Z,97840.72
2022-11-29T00:08:35.181Z,97839.88
2022-11-29T00:11:41.213Z,97836.59
2022-11-29T00:14:12.086Z,97840.91
2022-11-29T00:16:41.070Z,97832.28
2022-11-29T00:19:08.956Z,97829.44
2022-11-29T00:21:35.826Z,97826.16
2022-11-29T00:24:02.791Z,97826.97
2022-11-29T00:26:29.511Z,97811.19
2022-11-29T00:28:56.045Z,97820.81
2022-11-29T00:31:25.283Z,97826.13
2022-11-29T00:33:52.565Z,97824.09
2022-11-29T00:36:19.984Z,97820.00
2022-11-29T00:38:46.751Z,97818.75
2022-11-29T00:41:13.433Z,97810.97
2022-11-29T00:43:40.406Z,97817.50
2022-11-29T00:46:07.859Z,97822.41
2022-11-29T00:48:35.022Z,97816.69
2022-11-29T00:51:02.517Z,97825.28
2022-11-29T00:53:29.306Z,97810.75
2022-11-29T00:55:56.310Z,97818.53
2022-11-29T00:58:23.324Z,97821.56
2022-11-29T01:00:50.230Z,97811.16
2022-11-29T01:03:17.785Z,97819.75
2022-11-29T01:05:45.508Z,97823.63
2022-11-29T01:08:12.418Z,97825.06
2022-11-29T01:10:39.415Z,97821.75
2022-11-29T01:13:06.765Z,97817.44
2022-11-29T01:15:33.482Z,97808.84
2022-11-29T01:18:00.282Z,97818.84
2022-11-29T01:20:27.863Z,97817.81
2022-11-29T01:22:54.717Z,97817.59
2022-11-29T01:25:21.523Z,97812.50
2022-11-29T01:27:48.189Z,97806.38
2022-11-29T01:30:15.128Z,97816.16
2022-11-29T01:32:41.827Z,97815.94
2022-11-29T01:35:08.851Z,97812.47
2022-11-29T01:37:35.606Z,97811.22
2022-11-29T01:40:02.627Z,97808.75
2022-11-29T01:42:29.258Z,97812.44
2022-11-29T01:45:05.480Z,97814.06
2022-11-29T01:47:32.939Z,97806.53
2022-11-29T01:50:00.188Z,97803.22
2022-11-29T01:52:31.420Z,97796.66
2022-11-29T01:55:01.835Z,97800.53
2022-11-29T01:57:29.665Z,97807.69
2022-11-29T02:00:00.860Z,97809.94
2022-11-29T02:02:32.711Z,97806.66
2022-11-29T02:05:02.699Z,97812.38
2022-11-29T02:07:29.698Z,97806.63
2022-11-29T02:09:56.577Z,97809.84
2022-11-29T02:12:55.750Z,97818.25
2022-11-29T02:15:28.822Z,97819.28
2022-11-29T02:18:11.759Z,97816.81
2022-11-29T02:21:12.528Z,97814.72
2022-11-29T02:24:02.049Z,97822.50
2022-11-29T02:26:44.212Z,97808.97
2022-11-29T02:29:32.093Z,97817.34
2022-11-29T02:32:29.676Z,97817.34
2022-11-29T02:35:27.051Z,97815.72
2022-11-29T02:38:18.045Z,97815.88
2022-11-29T02:41:33.358Z,97818.09
2022-11-29T02:44:24.825Z,97824.44
2022-11-29T02:47:26.281Z,97833.81
2022-11-29T02:50:38.892Z,97813.34
2022-11-29T02:53:35.798Z,97826.19
2022-11-29T02:56:20.739Z,97833.53
2022-11-29T02:58:54.543Z,97833.72
2022-11-29T03:01:30.316Z,97834.97
2022-11-29T03:04:13.989Z,97829.88
2022-11-29T03:07:05.426Z,97837.06
2022-11-29T03:09:48.800Z,97833.38
2022-11-29T03:12:21.177Z,97832.19
2022-11-29T03:14:57.632Z,97825.22
2022-11-29T03:17:38.040Z,97824.22
2022-11-29T03:20:26.007Z,97828.88
2022-11-29T03:23:19.814Z,97827.69
2022-11-29T03:25:57.088Z,97826.44
2022-11-29T03:28:31.213Z,97828.06
2022-11-29T03:31:00.784Z,97827.88
2022-11-29T03:34:10.670Z,97823.97
2022-11-29T03:37:14.718Z,97835.59
2022-11-29T03:39:44.420Z,97843.13
2022-11-29T03:42:49.692Z,97846.19
2022-11-29T03:45:34.942Z,97835.50
2022-11-29T03:48:15.982Z,97838.94
2022-11-29T03:50:56.697Z,97841.78
2022-11-29T03:53:36.087Z,97836.28
2022-11-29T03:56:23.267Z,97841.78
2022-11-29T03:59:27.551Z,97848.72
2022-11-29T04:02:36.393Z,97846.66
2022-11-29T04:05:27.410Z,97852.09
2022-11-29T04:07:57.420Z,97846.56
2022-11-29T04:10:47.464Z,97851.03
2022-11-29T04:13:42.305Z,97843.25
2022-11-29T04:16:09.025Z,97846.94
2022-11-29T04:19:04.031Z,97849.16
2022-11-29T04:21:45.538Z,97846.66
2022-11-29T04:24:36.922Z,97845.25
2022-11-29T04:27:49.146Z,97855.03
2022-11-29T04:30:20.095Z,97855.03
2022-11-29T04:32:55.899Z,97853.56
2022-11-29T04:35:48.462Z,97855.78
2022-11-29T04:38:33.925Z,97862.09
2022-11-29T04:41:28.590Z,97856.97
2022-11-29T04:44:07.471Z,97855.53
2022-11-29T04:46:46.200Z,97852.25
2022-11-29T04:49:29.154Z,97858.19
2022-11-29T04:52:17.414Z,97859.47
2022-11-29T04:55:02.534Z,97861.09
2022-11-29T04:57:37.379Z,97865.22
2022-11-29T05:00:11.912Z,97861.31
2022-11-29T05:02:48.453Z,97859.13
2022-11-29T05:05:59.935Z,97858.94
2022-11-29T05:08:50.364Z,97868.97
2022-11-29T05:11:31.948Z,97860.81
2022-11-29T05:14:24.479Z,97863.28
2022-11-29T05:16:58.870Z,97871.44
2022-11-29T05:19:40.397Z,97867.59
2022-11-29T05:22:22.350Z,97869.41
2022-11-29T05:25:01.124Z,97863.88
2022-11-29T05:27:46.761Z,97870.25
2022-11-29T05:30:20.867Z,97877.38
2022-11-29T05:32:55.881Z,97877.19
2022-11-29T05:35:50.168Z,97871.06
2022-11-29T05:38:41.147Z,97873.09
2022-11-29T05:41:32.994Z,97877.16
2022-11-29T05:44:04.932Z,97875.81
2022-11-29T05:46:42.844Z,97877.81
2022-11-29T05:49:31.069Z,97888.88
2022-11-29T05:52:18.325Z,97885.59
2022-11-29T05:54:48.138Z,97885.59
2022-11-29T05:57:33.891Z,97884.72
2022-11-29T06:00:03.543Z,97893.50
2022-11-29T06:02:39.970Z,97892.03
2022-11-29T06:05:17.111Z,97894.25
2022-11-29T06:08:08.659Z,97902.66
2022-11-29T06:10:40.429Z,97890.41
2022-11-29T06:13:28.932Z,97895.25
2022-11-29T06:16:18.200Z,97892.16
2022-11-29T06:19:12.820Z,97895.63
2022-11-29T06:22:21.183Z,97901.75
2022-11-29T06:25:12.455Z,97897.25
2022-11-29T06:28:00.913Z,97896.91
2022-11-29T06:30:41.282Z,97884.00
2022-11-29T06:33:19.253Z,97898.72
2022-11-29T06:35:54.575Z,97900.00
2022-11-29T06:38:30.278Z,97901.63
2022-11-29T06:41:01.840Z,97908.78
2022-11-29T06:43:29.912Z,97893.59
2022-11-29T06:46:15.313Z,97906.94
2022-11-29T06:49:14.235Z,97907.38
2022-11-29T06:51:51.396Z,97918.19
2022-11-29T06:54:18.213Z,97914.16
2022-11-29T06:57:17.381Z,97910.69
2022-11-29T07:00:04.841Z,97904.72
2022-11-29T07:02:40.827Z,97906.81
2022-11-29T07:05:20.188Z,97896.03
2022-11-29T07:07:48.685Z,97891.16
2022-11-29T07:10:19.342Z,97902.00
2022-11-29T07:12:48.313Z,97902.66
2022-11-29T07:15:18.777Z,97904.94
2022-11-29T07:18:05.719Z,97903.72
2022-11-29T07:20:51.313Z,97900.53
2022-11-29T07:23:32.264Z,97900.53
2022-11-29T07:26:37.198Z,97887.63
2022-11-29T07:29:25.491Z,97901.41
2022-11-29T07:32:14.790Z,97909.59
2022-11-29T07:34:53.286Z,97906.75
2022-11-29T07:37:20.249Z,97907.19
2022-11-29T07:40:13.980Z,97907.03
2022-11-29T07:42:43.654Z,97910.13
2022-11-29T07:45:36.239Z,97907.09
2022-11-29T07:48:04.231Z,97909.56
2022-11-29T07:50:31.652Z,97901.63
2022-11-29T07:53:00.252Z,97908.41
2022-11-29T07:55:27.687Z,97909.66
2022-11-29T07:57:54.293Z,97910.34
2022-11-29T08:00:21.921Z,97914.69
2022-11-29T08:02:50.682Z,97904.50
2022-11-29T08:05:18.076Z,97910.88
2022-11-29T08:07:44.741Z,97898.00
2022-11-29T08:10:14.624Z,97893.75
2022-11-29T08:12:47.828Z,97893.81
2022-11-29T08:15:14.850Z,97892.41
2022-11-29T08:17:41.688Z,97897.53
2022-11-29T08:20:10.393Z,97901.47
2022-11-29T08:22:37.518Z,97904.19
2022-11-29T08:25:05.428Z,97895.63
2022-11-29T08:27:32.089Z,97883.53
2022-11-29T08:29:59.013Z,97889.53
2022-11-29T08:32:26.519Z,97895.91
2022-11-29T08:34:53.152Z,97887.53
2022-11-29T08:37:20.069Z,97890.84
2022-11-29T08:39:46.836Z,97885.34
2022-11-29T08:42:13.465Z,97890.06
2022-11-29T08:44:40.401Z,97881.47
2022-11-29T08:47:25.844Z,97876.97
2022-11-29T08:50:01.431Z,97876.97
2022-11-29T08:52:51.558Z,97876.97
2022-11-29T08:55:20.878Z,97866.28
2022-11-29T08:57:48.305Z,97866.88
2022-11-29T09:00:15.835Z,97860.28
2022-11-29T09:02:42.770Z,97860.84
2022-11-29T09:05:10.705Z,97855.25
2022-11-29T09:07:38.605Z,97861.97
2022-11-29T09:10:08.308Z,97849.78
2022-11-29T09:12:39.981Z,97853.59
2022-11-29T09:15:09.606Z,97861.31
2022-11-29T09:17:36.274Z,97836.44
2022-11-29T09:20:03.425Z,97846.53
2022-11-29T09:22:30.075Z,97842.13
2022-11-29T09:24:57.351Z,97837.50
2022-11-29T09:27:23.990Z,97840.03
2022-11-29T09:29:50.838Z,97830.03
2022-11-29T09:32:17.501Z,97819.88
2022-11-29T09:34:44.418Z,97826.88
2022-11-29T09:37:11.485Z,97825.22
2022-11-29T09:39:38.297Z,97822.38
2022-11-29T09:42:28.362Z,97820.94
2022-11-29T09:45:02.771Z,97821.38
2022-11-29T09:47:41.684Z,97815.59
2022-11-29T09:50:23.482Z,97806.34
2022-11-29T09:53:02.179Z,97797.03
2022-11-29T09:55:47.242Z,97801.38
2022-11-29T09:58:21.014Z,97804.66
2022-11-29T10:00:51.314Z,97806.06
2022-11-29T10:03:27.799Z,97807.59
2022-11-29T10:05:59.970Z,97803.94
2022-11-29T10:08:36.952Z,97806.41
2022-11-29T10:11:22.578Z,97812.09
2022-11-29T10:13:55.732Z,97812.31
2022-11-29T10:16:36.295Z,97806.34
2022-11-29T10:19:15.721Z,97800.81
2022-11-29T10:21:45.632Z,97801.50
2022-11-29T10:24:17.937Z,97808.13
2022-11-29T10:26:44.642Z,97811.06
2022-11-29T10:29:15.796Z,97806.38
2022-11-29T10:31:49.693Z,97804.22
2022-11-29T10:34:19.971Z,97798.72
2022-11-29T10:36:49.890Z,97796.38
2022-11-29T10:39:37.320Z,97800.19
2022-11-29T10:42:07.079Z,97795.50
2022-11-29T10:44:34.090Z,97795.34
2022-11-29T10:47:10.463Z,97791.59
2022-11-29T10:49:37.928Z,97784.47
2022-11-29T10:52:05.935Z,97786.75
2022-11-29T10:54:40.101Z,97793.91
2022-11-29T10:57:15.632Z,97796.66
2022-11-29T10:59:57.717Z,97776.78
2022-11-29T11:02:24.685Z,97779.91
2022-11-29T11:04:51.427Z,97777.38
2022-11-29T11:07:25.246Z,97784.03
2022-11-29T11:09:56.164Z,97766.34
2022-11-29T11:12:27.505Z,97772.75
2022-11-29T11:15:13.789Z,97774.19
2022-11-29T11:17:42.292Z,97773.53
2022-11-29T11:20:24.063Z,97775.19
2022-11-29T11:23:06.883Z,97777.97
2022-11-29T11:25:36.290Z,97774.84
2022-11-29T11:28:17.249Z,97774.16
2022-11-29T11:31:01.526Z,97764.00
2022-11-29T11:33:36.903Z,97764.63
2022-11-29T11:36:05.649Z,97766.63
2022-11-29T11:38:37.811Z,97760.41
2022-11-29T11:41:19.177Z,97765.13
2022-11-29T11:43:59.062Z,97760.84
2022-11-29T11:46:52.116Z,97758.69
2022-11-29T11:49:49.953Z,97760.06
2022-11-29T11:52:27.725Z,97768.47
2022-11-29T11:54:58.734Z,97763.63
2022-11-29T11:57:26.852Z,97763.13
2022-11-29T11:59:56.108Z,97761.81
2022-11-29T12:02:35.749Z,97764.28
2022-11-29T12:05:06.571Z,97764.84
2022-11-29T12:08:06.877Z,97759.94
2022-11-29T12:10:32.598Z,97756.75
2022-11-29T12:13:00.758Z,97743.28
2022-11-29T12:15:27.325Z,97743.06
2022-11-29T12:18:06.383Z,97752.53
2022-11-29T12:20:40.737Z,97749.28
2022-11-29T12:23:27.390Z,97750.91
2022-11-29T12:26:19.233Z,97751.22
2022-11-29T12:29:00.325Z,97748.03
2022-11-29T12:31:44.097Z,97730.16
2022-11-29T12:34:34.045Z,97728.91
2022-11-29T12:37:14.584Z,97736.47
2022-11-29T12:40:06.738Z,97735.66
2022-11-29T12:42:49.592Z,97723.81
2022-11-29T12:45:46.831Z,97734.59
2022-11-29T12:48:45.815Z,97728.34
2022-11-29T12:51:46.910Z,97729.72
2022-11-29T12:54:47.949Z,97727.25
2022-11-29T12:57:44.078Z,97725.06
2022-11-29T13:00:14.997Z,97727.69
2022-11-29T13:02:49.199Z,97726.09
2022-11-29T13:05:15.650Z,97724.97
2022-11-29T13:08:01.825Z,97718.97
2022-11-29T13:10:58.116Z,97719.16
2022-11-29T13:13:40.161Z,97721.44
2022-11-29T13:16:35.173Z,97717.84
2022-11-29T13:19:24.339Z,97717.50
2022-11-29T13:22:14.126Z,97725.09
2022-11-29T13:24:52.186Z,97718.31
2022-11-29T13:27:25.278Z,97728.84
2022-11-29T13:29:53.129Z,97730.47
2022-11-29T13:32:51.815Z,97731.25
2022-11-29T13:35:22.102Z,97738.22
2022-11-29T13:37:55.757Z,97744.63
2022-11-29T13:40:31.265Z,97738.72
2022-11-29T13:43:10.016Z,97747.28
2022-11-29T13:46:10.029Z,97744.78
2022-11-29T13:48:47.777Z,97743.84
2022-11-29T13:51:25.333Z,97742.97
2022-11-29T13:53:53.053Z,97735.00
2022-11-29T13:56:27.477Z,97744.22
2022-11-29T13:58:54.953Z,97736.56
2022-11-29T14:01:23.443Z,97744.59
2022-11-29T14:04:03.790Z,97739.88
2022-11-29T14:06:40.681Z,97761.66
2022-11-29T14:09:25.655Z,97756.94
2022-11-29T14:12:19.760Z,97764.22
2022-11-29T14:14:55.393Z,97764.88
2022-11-29T14:17:30.664Z,97777.13
2022-11-29T14:20:23.501Z,97772.63
2022-11-29T14:23:05.451Z,97774.03
2022-11-29T14:25:51.490Z,97770.03
2022-11-29T14:28:21.992Z,97774.06
2022-11-29T14:30:50.963Z,97763.66
2022-11-29T14:33:38.604Z,97770.72
2022-11-29T14:36:26.363Z,97770.53
2022-11-29T14:39:20.207Z,97771.94
2022-11-29T14:42:18.873Z,97773.38
2022-11-29T14:44:51.089Z,97765.75
2022-11-29T14:47:29.907Z,97781.03
2022-11-29T14:49:59.274Z,97772.44
2022-11-29T14:52:35.994Z,97771.41
2022-11-29T14:55:14.550Z,97782.84
2022-11-29T14:57:50.531Z,97779.69
2022-11-29T15:00:35.234Z,97781.59
2022-11-29T15:03:06.845Z,97779.94
2022-11-29T15:05:38.084Z,97787.97
2022-11-29T15:08:35.180Z,97777.72
2022-11-29T15:11:27.200Z,97786.44
2022-11-29T15:14:07.479Z,97788.88
2022-11-29T15:17:25.028Z,97789.91
2022-11-29T15:20:13.610Z,97790.91
2022-11-29T15:22:43.112Z,97797.41
2022-11-29T15:25:19.506Z,97787.84
2022-11-29T15:27:53.624Z,97788.53
2022-11-29T15:30:21.228Z,97795.13
2022-11-29T15:32:47.890Z,97802.75
2022-11-29T15:35:19.322Z,97806.69
2022-11-29T15:37:49.934Z,97801.22
2022-11-29T15:40:19.828Z,97805.13
2022-11-29T15:43:02.429Z,97807.09
2022-11-29T15:45:34.665Z,97813.56
2022-11-29T15:48:25.631Z,97810.75
2022-11-29T15:51:01.856Z,97811.94
2022-11-29T15:53:53.973Z,97813.03
2022-11-29T15:56:48.495Z,97820.09
2022-11-29T15:59:29.462Z,97816.91
2022-11-29T16:02:00.539Z,97815.03
2022-11-29T16:04:27.354Z,97820.81
2022-11-29T16:06:55.786Z,97809.75
2022-11-29T16:09:51.346Z,97819.25
2022-11-29T16:12:18.756Z,97815.81
2022-11-29T16:14:52.925Z,97823.63
2022-11-29T16:17:20.951Z,97832.66
2022-11-29T16:19:48.573Z,97827.22
2022-11-29T16:22:26.256Z,97825.66
2022-11-29T16:24:55.765Z,97830.84
2022-11-29T16:27:23.539Z,97822.94
2022-11-29T16:29:55.205Z,97830.31
2022-11-29T16:32:29.109Z,97831.59
2022-11-29T16:34:57.825Z,97832.22
2022-11-29T16:37:29.095Z,97836.59
2022-11-29T16:40:00.229Z,97851.00
2022-11-29T16:42:29.509Z,97847.31
2022-11-29T16:45:04.581Z,97845.72
2022-11-29T16:47:46.657Z,97848.25
2022-11-29T16:50:17.350Z,97855.22
2022-11-29T16:52:44.403Z,97855.63
2022-11-29T16:55:13.111Z,97855.63
2022-11-29T16:57:44.660Z,97842.97
2022-11-29T17:00:32.581Z,97852.81
2022-11-29T17:02:59.861Z,97862.69
2022-11-29T17:05:27.243Z,97848.72
2022-11-29T17:07:54.546Z,97854.88
2022-11-29T17:10:25.797Z,97861.06
2022-11-29T17:12:52.862Z,97860.88
2022-11-29T17:15:19.501Z,97867.25
2022-11-29T17:17:46.426Z,97860.69
2022-11-29T17:20:13.641Z,97865.00
2022-11-29T17:22:41.026Z,97865.41
2022-11-29T17:25:08.518Z,97865.84
2022-11-29T17:27:36.122Z,97858.06
2022-11-29T17:30:03.627Z,97867.31
2022-11-29T17:32:30.509Z,97872.25
2022-11-29T17:34:57.155Z,97880.72
2022-11-29T17:37:23.823Z,97879.03
2022-11-29T17:39:50.892Z,97888.72
2022-11-29T17:42:17.794Z,97885.84
2022-11-29T17:44:44.440Z,97891.59
2022-11-29T17:47:11.276Z,97900.84
2022-11-29T17:49:37.860Z,97890.84
2022-11-29T17:52:04.773Z,97895.34
2022-11-29T17:54:33.418Z,97892.69
2022-11-29T17:57:00.924Z,97894.94
2022-11-29T17:59:27.697Z,97879.78
2022-11-29T18:01:54.743Z,97884.06
2022-11-29T18:04:21.885Z,97885.13
2022-11-29T18:06:50.407Z,97885.53
2022-11-29T18:09:18.435Z,97893.13
2022-11-29T18:11:49.269Z,97888.00
2022-11-29T18:14:28.507Z,97878.97
2022-11-29T18:16:55.471Z,97886.78
2022-11-29T18:19:25.484Z,97886.38
2022-11-29T18:21:52.482Z,97888.00
2022-11-29T18:24:19.334Z,97882.09
2022-11-29T18:26:46.197Z,97897.03
2022-11-29T18:29:12.996Z,97899.91
2022-11-29T18:31:44.650Z,97892.13
2022-11-29T18:34:13.235Z,97896.22
2022-11-29T18:36:45.866Z,97889.50
2022-11-29T18:39:20.219Z,97892.16
2022-11-29T18:41:49.241Z,97899.50
2022-11-29T18:44:17.815Z,97893.38
2022-11-29T18:46:45.836Z,97899.50
2022-11-29T18:49:14.899Z,97880.84
2022-11-29T18:51:46.555Z,97892.34
2022-11-29T18:54:15.019Z,97888.03
2022-11-29T18:56:42.650Z,97887.63
2022-11-29T18:59:16.887Z,97883.94
2022-11-29T19:01:46.077Z,97891.75
2022-11-29T19:04:15.487Z,97901.97
2022-11-29T19:06:42.938Z,97903.19
2022-11-29T19:09:23.441Z,97892.53
2022-11-29T19:11:50.832Z,97895.81
2022-11-29T19:14:18.386Z,97904.84
2022-11-29T19:16:46.769Z,97901.38
2022-11-29T19:19:13.616Z,97902.78
2022-11-29T19:21:41.056Z,97910.56
2022-11-29T19:24:14.311Z,97910.13
2022-11-29T19:26:44.479Z,97905.44
2022-11-29T19:29:11.510Z,97903.56
2022-11-29T19:31:39.371Z,97897.81
2022-11-29T19:34:06.493Z,97903.16
2022-11-29T19:36:33.113Z,97903.16
2022-11-29T19:39:01.761Z,97905.81
2022-11-29T19:41:31.593Z,97907.06
2022-11-29T19:44:00.616Z,97900.28
2022-11-29T19:46:34.372Z,97902.94
2022-11-29T19:49:01.624Z,97896.38
2022-11-29T19:51:29.631Z,97893.91
2022-11-29T19:53:59.296Z,97904.13
2022-11-29T19:56:26.564Z,97920.97
2022-11-29T19:58:53.232Z,97918.06
2022-11-29T20:01:25.480Z,97919.09
2022-11-29T20:03:52.986Z,97919.09
2022-11-29T20:06:19.634Z,97917.03
2022-11-29T20:08:46.693Z,97913.94
2022-11-29T20:11:21.842Z,97921.69
2022-11-29T20:13:59.805Z,97922.72
2022-11-29T20:16:27.876Z,97915.34
2022-11-29T20:18:55.243Z,97915.31
2022-11-29T20:21:25.978Z,97926.78
2022-11-29T20:23:57.358Z,97922.22
2022-11-29T20:26:24.904Z,97916.09
2022-11-29T20:28:51.616Z,97909.75
2022-11-29T20:31:22.880Z,97910.19
2022-11-29T20:33:52.026Z,97905.84
2022-11-29T20:36:30.832Z,97909.53
2022-11-29T20:39:08.448Z,97904.22
2022-11-29T20:41:45.651Z,97905.84
2022-11-29T20:44:19.797Z,97903.19
2022-11-29T20:46:46.733Z,97917.34
2022-11-29T20:49:15.277Z,97919.38
2022-11-29T20:51:51.798Z,97906.19
2022-11-29T20:54:19.705Z,97916.84
2022-11-29T20:56:46.592Z,97907.81
2022-11-29T20:59:13.415Z,97917.44
2022-11-29T21:01:40.047Z,97926.63
2022-11-29T21:04:06.839Z,97913.28
2022-11-29T21:06:37.662Z,97917.19
2022-11-29T21:09:05.049Z,97926.56
2022-11-29T21:11:32.269Z,97926.16
2022-11-29T21:14:03.441Z,97924.72
2022-11-29T21:16:31.674Z,97926.16
2022-11-29T21:19:01.456Z,97926.13
2022-11-29T21:22:02.064Z,97914.22
2022-11-29T21:24:49.741Z,97922.84
2022-11-29T21:27:21.087Z,97928.16
2022-11-29T21:29:48.016Z,97923.22
2022-11-29T21:32:21.915Z,97921.59
2022-11-29T21:34:48.990Z,97918.94
2022-11-29T21:37:18.333Z,97932.00
2022-11-29T21:39:45.657Z,97925.69
2022-11-29T21:42:12.257Z,97930.59
2022-11-29T21:44:39.061Z,97929.75
2022-11-29T21:47:06.249Z,97918.06
2022-11-29T21:49:33.149Z,97910.88
2022-11-29T21:52:02.914Z,97934.41
2022-11-29T21:54:30.152Z,97939.91
2022-11-29T21:56:56.886Z,97932.13
2022-11-29T21:59:24.953Z,97935.16
2022-11-29T22:01:52.735Z,97936.56
2022-11-29T22:04:19.915Z,97923.06
2022-11-29T22:06:47.688Z,97926.72
2022-11-29T22:09:14.802Z,97923.25
2022-11-29T22:11:41.670Z,97926.72
2022-11-29T22:14:13.593Z,97922.19
2022-11-29T22:16:44.114Z,97926.69
2022-11-29T22:19:15.067Z,97920.28
2022-11-29T22:21:43.646Z,97911.88
2022-11-29T22:24:11.789Z,97920.66
2022-11-29T22:26:38.885Z,97921.69
2022-11-29T22:29:06.140Z,97903.63
2022-11-29T22:31:33.038Z,97916.75
2022-11-29T22:33:59.625Z,97929.03
2022-11-29T22:36:26.468Z,97917.16
2022-11-29T22:38:53.338Z,97922.84
2022-11-29T22:41:20.770Z,97919.19
2022-11-29T22:43:47.431Z,97913.00
2022-11-29T22:46:22.835Z,97904.00
2022-11-29T22:48:52.507Z,97919.94
2022-11-29T22:51:22.263Z,97914.63
2022-11-29T22:53:54.842Z,97909.69
2022-11-29T22:56:23.337Z,97919.13
2022-11-29T22:58:50.368Z,97907.25
2022-11-29T23:01:19.729Z,97914.19
2022-11-29T23:03:49.271Z,97901.31
2022-11-29T23:06:18.591Z,97899.28
2022-11-29T23:08:46.903Z,97901.94
2022-11-29T23:11:22.761Z,97888.41
2022-11-29T23:13:50.149Z,97886.75
2022-11-29T23:16:19.174Z,97884.69
2022-11-29T23:18:46.475Z,97892.34
2022-11-29T23:21:35.276Z,97890.88
2022-11-29T23:24:02.357Z,97891.47
2022-11-29T23:26:37.762Z,97895.75
2022-11-29T23:29:10.842Z,97890.00
2022-11-29T23:31:37.877Z,97884.06
2022-11-29T23:34:05.484Z,97883.88
2022-11-29T23:36:32.232Z,97879.97
2022-11-29T23:38:58.953Z,97875.84
2022-11-29T23:41:25.617Z,97877.50
2022-11-29T23:43:52.487Z,97876.50
2022-11-29T23:46:21.661Z,97874.22
2022-11-29T23:48:49.254Z,97883.19
2022-11-29T23:51:16.800Z,97878.88
2022-11-29T23:53:44.130Z,97881.72
2022-11-29T23:56:15.126Z,97871.06
2022-11-29T23:58:43.078Z,97881.66
